Time;durP1;ratioP1;P1;durP2;ratioP2;P2;SDS_P1;SDS_P2;PMS_P1;PMS_P2;Temp;Humidity;BMP_temperature;BMP_pressure;BME280_temperature;BME280_humidity;BME280_pressure;Samples;Min_cycle;Max_cycle;Signal;HPM_P1;HPM_P2
2022/06/04 00:00:42;;;;;;;;;31.75;29.25;;;;;20.92;50.59;100968.38;4942466;28;45323;-46
2022/06/04 00:03:09;;;;;;;;;33.75;29.75;;;;;20.91;50.70;100979.16;4942741;28;45340;-46
2022/06/04 00:05:37;;;;;;;;;33.25;31.75;;;;;20.89;51.09;100981.91;4942998;28;45317;-47
2022/06/04 00:08:05;;;;;;;;;33.50;30.00;;;;;20.89;51.07;100983.69;4941437;28;45453;-47
2022/06/04 00:16:06;;;;;;;;;32.25;30.25;;;;;20.82;51.20;100979.63;4942413;28;45419;-50
2022/06/04 00:18:31;;;;;;;;;36.50;32.50;;;;;20.80;50.67;100978.88;4942667;28;45450;-47
2022/06/04 00:20:57;;;;;;;;;34.50;31.25;;;;;20.76;50.72;100975.50;4941449;28;45216;-46
2022/06/04 00:23:23;;;;;;;;;35.00;31.25;;;;;20.78;51.34;100978.94;4942463;28;45314;-46
2022/06/04 00:25:51;;;;;;;;;35.00;33.00;;;;;20.75;51.31;100977.31;4942667;28;45233;-50
2022/06/04 00:28:19;;;;;;;;;37.25;32.75;;;;;20.73;50.74;100971.19;4942470;28;45628;-46
2022/06/04 00:30:45;;;;;;;;;39.25;34.50;;;;;20.74;51.37;100978.25;4941879;28;45436;-47
2022/06/04 00:33:11;;;;;;;;;42.50;34.75;;;;;20.71;50.89;100965.03;4942396;28;45276;-46
2022/06/04 00:35:37;;;;;;;;;41.00;34.75;;;;;20.70;51.40;100962.44;4942552;28;45253;-46
2022/06/04 00:38:05;;;;;;;;;30.50;30.50;;;;;20.67;50.73;100962.59;4942397;28;45188;-47
2022/06/04 00:40:45;;;;;;;;;37.00;33.00;;;;;20.66;51.05;100966.22;4941895;28;46397;-46
2022/06/04 00:43:11;;;;;;;;;31.75;31.00;;;;;20.66;51.50;100969.75;4942404;28;45236;-47
2022/06/04 00:45:37;;;;;;;;;32.00;30.25;;;;;20.63;51.09;100970.75;4941879;28;45432;-48
2022/06/04 00:48:09;;;;;;;;;36.75;34.00;;;;;20.62;51.07;100970.84;4942422;28;45208;-47
2022/06/04 00:50:37;;;;;;;;;35.75;32.75;;;;;20.59;51.35;100965.66;4941753;28;46611;-48
2022/06/04 00:53:08;;;;;;;;;33.25;31.75;;;;;20.59;51.59;100954.97;4942105;28;45184;-48
2022/06/04 00:56:04;;;;;;;;;37.50;32.50;;;;;20.56;51.11;100972.03;4941986;28;45447;-47
2022/06/04 00:59:05;;;;;;;;;31.50;30.50;;;;;20.55;51.11;100970.31;4941938;28;45259;-46
2022/06/04 01:01:53;;;;;;;;;33.00;30.75;;;;;20.54;51.50;100965.03;4935983;28;46350;-49
2022/06/04 01:04:47;;;;;;;;;31.50;29.25;;;;;20.51;51.58;100950.06;4941984;28;45386;-44
2022/06/04 01:07:34;;;;;;;;;28.50;26.00;;;;;20.51;51.58;100946.53;4941872;28;45324;-47
2022/06/04 01:10:38;;;;;;;;;27.75;26.75;;;;;20.49;51.73;100937.72;4941825;28;45333;-48
2022/06/04 01:13:34;;;;;;;;;28.00;28.00;;;;;20.43;51.12;100939.78;4918822;28;46001;-48
2022/06/04 01:16:21;;;;;;;;;25.25;24.50;;;;;20.43;51.23;100936.25;4941463;28;45381;-46
2022/06/04 01:18:57;;;;;;;;;34.00;32.00;;;;;20.42;51.76;100937.19;4941908;28;45280;-48
2022/06/04 01:21:53;;;;;;;;;24.00;24.00;;;;;20.41;51.17;100930.97;4940445;28;45270;-44
2022/06/04 01:24:49;;;;;;;;;29.75;25.50;;;;;20.39;51.25;100932.88;4940366;28;45269;-46
2022/06/04 01:27:30;;;;;;;;;31.75;27.75;;;;;20.36;51.67;100925.03;4941605;28;45321;-46
2022/06/04 01:30:03;;;;;;;;;30.75;26.25;;;;;20.35;51.29;100928.66;4941220;28;45348;-46
2022/06/04 01:32:38;;;;;;;;;35.50;31.00;;;;;20.34;51.85;100918.03;4947253;28;45296;-47
2022/06/04 01:35:12;;;;;;;;;26.25;23.75;;;;;20.33;51.39;100911.00;4947970;28;46216;-45
2022/06/04 01:37:55;;;;;;;;;26.00;25.25;;;;;20.30;51.93;100918.22;4947868;28;45309;-49
2022/06/04 01:43:28;;;;;;;;;24.50;23.50;;;;;20.25;51.95;100912.28;4946957;28;45273;-50
2022/06/04 01:46:01;;;;;;;;;25.50;24.75;;;;;20.27;51.82;100914.84;4947385;28;46186;-48
2022/06/04 01:48:30;;;;;;;;;28.50;26.00;;;;;20.26;51.88;100911.31;4947789;28;45257;-46
2022/06/04 01:50:59;;;;;;;;;27.75;25.00;;;;;20.24;52.00;100915.03;4947593;28;45220;-49
2022/06/04 01:53:32;;;;;;;;;29.25;28.25;;;;;20.22;51.95;100915.06;4947622;28;45459;-47
2022/06/04 01:56:02;;;;;;;;;28.00;25.75;;;;;20.22;51.70;100898.22;4946260;28;45473;-47
2022/06/04 01:58:34;;;;;;;;;27.25;26.00;;;;;20.20;51.60;100906.31;4947595;28;46505;-45
2022/06/04 02:01:08;;;;;;;;;27.75;26.50;;;;;20.20;51.88;100911.66;4947578;28;45148;-46
2022/06/04 02:03:39;;;;;;;;;31.25;29.75;;;;;20.18;51.55;100894.84;4947766;28;45236;-46
2022/06/04 02:06:13;;;;;;;;;28.75;28.75;;;;;20.17;52.10;100887.78;4947554;28;45307;-46
2022/06/04 02:09:03;;;;;;;;;34.25;30.75;;;;;20.15;52.09;100876.34;4947475;28;45532;-48
2022/06/04 02:11:29;;;;;;;;;29.75;28.50;;;;;20.13;51.99;100881.75;4947345;28;45172;-49
2022/06/04 02:13:58;;;;;;;;;31.25;30.75;;;;;20.12;51.61;100888.03;4947441;28;45496;-45
2022/06/04 02:16:45;;;;;;;;;26.50;24.75;;;;;20.11;51.78;100888.97;4946777;28;45367;-47
2022/06/04 02:19:11;;;;;;;;;28.50;28.50;;;;;20.08;52.18;100893.59;4947435;28;45324;-46
2022/06/04 02:21:37;;;;;;;;;30.75;29.00;;;;;20.07;52.14;100894.53;4946074;28;45470;-46
2022/06/04 02:24:04;;;;;;;;;29.75;28.25;;;;;20.04;52.16;100892.91;4947501;28;45268;-49
2022/06/04 02:26:30;;;;;;;;;27.00;24.25;;;;;20.04;52.25;100898.22;4947063;28;45299;-46
2022/06/04 02:28:58;;;;;;;;;25.75;24.00;;;;;20.06;51.96;100896.34;4947459;28;45239;-46
2022/06/04 02:31:26;;;;;;;;;28.50;27.25;;;;;20.05;52.33;100896.41;4946938;28;45278;-46
2022/06/04 02:34:23;;;;;;;;;24.50;24.50;;;;;20.03;52.19;100900.97;4947224;28;45295;-45
2022/06/04 02:37:01;;;;;;;;;24.50;24.25;;;;;20.02;52.16;100899.25;4929794;28;46124;-47
2022/06/04 02:39:55;;;;;;;;;23.00;21.25;;;;;20.01;52.12;100901.03;4946993;28;45520;-44
2022/06/04 02:42:47;;;;;;;;;25.25;23.00;;;;;19.97;52.30;100900.34;4944980;28;45274;-46
2022/06/04 02:45:24;;;;;;;;;26.00;26.00;;;;;19.96;52.22;100893.28;4943238;28;45579;-47
2022/06/04 02:47:59;;;;;;;;;20.00;19.25;;;;;19.96;52.14;100892.41;4943913;28;46204;-45
2022/06/04 02:50:32;;;;;;;;;16.50;16.50;;;;;19.94;52.35;100904.97;4943467;28;45293;-44
2022/06/04 02:53:01;;;;;;;;;21.50;20.00;;;;;19.94;51.87;100891.66;4943749;28;45229;-49
2022/06/04 02:55:32;;;;;;;;;24.00;22.75;;;;;19.92;52.17;100893.53;4943530;28;45508;-44
2022/06/04 02:58:01;;;;;;;;;23.75;22.25;;;;;19.90;52.14;100888.28;4943825;28;46485;-45
2022/06/04 03:00:29;;;;;;;;;27.50;23.50;;;;;19.88;52.15;100890.16;4943106;28;45379;-44
2022/06/04 03:02:54;;;;;;;;;26.25;25.00;;;;;19.89;52.37;100880.34;4943802;28;45481;-48
2022/06/04 03:05:23;;;;;;;;;26.50;24.50;;;;;19.89;52.14;100885.69;4943510;28;45497;-45
2022/06/04 03:07:51;;;;;;;;;30.00;25.25;;;;;19.87;52.23;100874.22;4943363;28;45267;-45
2022/06/04 03:10:26;;;;;;;;;21.50;19.75;;;;;19.86;52.31;100883.16;4943370;28;45596;-49
2022/06/04 03:12:52;;;;;;;;;23.00;22.00;;;;;19.80;51.94;100885.16;4943563;28;45398;-49
2022/06/04 03:15:17;;;;;;;;;23.25;21.75;;;;;19.83;52.54;100905.50;4943016;28;45321;-44
2022/06/04 03:17:45;;;;;;;;;22.75;21.25;;;;;19.81;52.02;100904.72;4943320;28;46800;-44
2022/06/04 03:20:12;;;;;;;;;20.50;18.25;;;;;19.79;52.17;100904.78;4943232;28;45243;-47
2022/06/04 03:22:37;;;;;;;;;25.25;23.25;;;;;19.78;52.67;100894.19;4943403;28;45285;-44
2022/06/04 03:25:04;;;;;;;;;25.25;23.75;;;;;19.75;52.47;100889.88;4943253;28;45285;-47
2022/06/04 03:27:30;;;;;;;;;25.50;22.75;;;;;19.75;52.25;100884.53;4943341;28;46290;-43
2022/06/04 03:29:55;;;;;;;;;23.50;21.25;;;;;19.77;52.27;100888.00;4942868;28;45333;-45
2022/06/04 03:32:21;;;;;;;;;28.25;25.00;;;;;19.77;52.53;100884.47;4943133;28;45791;-45
2022/06/04 03:34:46;;;;;;;;;22.00;19.75;;;;;19.76;52.61;100885.41;4943333;28;45441;-45
2022/06/04 03:37:12;;;;;;;;;22.75;20.25;;;;;19.75;52.13;100881.88;4943150;28;45311;-44
2022/06/04 03:39:37;;;;;;;;;26.00;24.50;;;;;19.75;52.62;100883.69;4943068;28;45323;-45
2022/06/04 03:42:04;;;;;;;;;20.00;18.75;;;;;19.73;52.58;100890.91;4943060;28;45334;-47
2022/06/04 03:44:29;;;;;;;;;21.00;20.00;;;;;19.73;52.73;100883.75;4943165;28;45295;-45
2022/06/04 03:46:55;;;;;;;;;25.25;23.00;;;;;19.73;52.63;100893.56;4942508;28;46144;-45
2022/06/04 03:49:21;;;;;;;;;28.00;26.00;;;;;19.70;52.29;100891.91;4942990;28;45188;-43
2022/06/04 03:51:46;;;;;;;;;21.75;20.00;;;;;19.71;52.36;100887.44;4942960;28;45235;-46
2022/06/04 03:54:12;;;;;;;;;23.25;23.00;;;;;19.70;52.70;100875.03;4942808;28;45293;-44
2022/06/04 03:56:37;;;;;;;;;27.50;26.50;;;;;19.70;52.35;100865.25;4942871;28;45300;-43
2022/06/04 03:59:03;;;;;;;;;27.75;24.00;;;;;19.60;52.43;100842.69;4942698;28;45261;-43
2022/06/04 04:01:30;;;;;;;;;27.00;25.00;;;;;19.65;52.68;100870.81;4942580;28;45257;-46
2022/06/04 04:03:58;;;;;;;;;27.25;23.75;;;;;19.63;52.96;100879.81;4942585;28;45391;-47
2022/06/04 04:06:29;;;;;;;;;24.00;21.50;;;;;19.61;52.50;100887.06;4942551;28;45335;-47
2022/06/04 04:08:55;;;;;;;;;21.75;19.75;;;;;19.59;52.31;100905.75;4942711;28;45450;-48
2022/06/04 04:11:25;;;;;;;;;26.25;24.75;;;;;19.57;53.01;100910.31;4942583;28;45395;-47
2022/06/04 04:13:51;;;;;;;;;28.00;27.25;;;;;19.54;52.62;100912.28;4942431;28;45438;-49
2022/06/04 04:16:18;;;;;;;;;21.50;21.00;;;;;19.46;53.14;100905.50;4941981;28;46171;-48
2022/06/04 04:18:43;;;;;;;;;25.00;22.50;;;;;19.53;53.01;100926.53;4942613;28;45309;-45
2022/06/04 04:21:12;;;;;;;;;21.25;19.75;;;;;19.54;52.66;100922.94;4942483;28;45226;-49
2022/06/04 04:23:38;;;;;;;;;20.25;19.50;;;;;19.54;52.67;100925.59;4942624;28;45246;-44
2022/06/04 04:26:05;;;;;;;;;23.50;23.50;;;;;19.54;52.74;100933.59;4942215;28;46168;-46
2022/06/04 04:28:30;;;;;;;;;24.75;23.75;;;;;19.55;52.89;100938.00;4942418;28;45224;-44
2022/06/04 04:30:56;;;;;;;;;23.25;22.25;;;;;19.54;52.59;100947.78;4941976;28;45742;-47
2022/06/04 04:33:21;;;;;;;;;26.00;22.50;;;;;19.55;53.00;100959.31;4942237;28;45227;-46
2022/06/04 04:35:47;;;;;;;;;23.75;21.50;;;;;19.56;52.98;100972.56;4942402;28;45176;-44
2022/06/04 04:38:13;;;;;;;;;24.50;23.00;;;;;19.57;52.69;100978.75;4942318;28;45205;-47
2022/06/04 04:40:41;;;;;;;;;27.00;21.00;;;;;19.55;52.65;100983.31;4941819;28;45378;-46
2022/06/04 04:43:07;;;;;;;;;22.00;19.25;;;;;19.53;53.09;100986.00;4942351;28;45446;-46
2022/06/04 04:45:32;;;;;;;;;24.25;23.00;;;;;19.53;53.01;100998.50;4941586;28;45434;-46
2022/06/04 04:47:58;;;;;;;;;21.75;21.00;;;;;19.55;52.91;101004.63;4942215;28;45280;-44
2022/06/04 04:50:33;;;;;;;;;21.75;21.75;;;;;19.54;53.30;101005.56;4941794;28;45268;-44
2022/06/04 04:53:01;;;;;;;;;24.50;21.75;;;;;19.55;53.46;101007.28;4942165;28;45300;-45
2022/06/04 04:55:27;;;;;;;;;21.50;18.75;;;;;19.54;52.95;100994.91;4941731;28;45379;-43
2022/06/04 04:57:52;;;;;;;;;22.25;21.50;;;;;19.56;53.36;100991.22;4942067;28;45235;-44
2022/06/04 05:00:18;;;;;;;;;23.00;21.75;;;;;19.58;52.87;100993.81;4941709;28;45234;-44
2022/06/04 05:02:44;;;;;;;;;25.75;24.50;;;;;19.58;52.80;100996.47;4940643;28;45591;-46
2022/06/04 05:05:11;;;;;;;;;23.25;21.25;;;;;19.58;53.13;100999.13;4941288;28;46234;-47
2022/06/04 05:07:37;;;;;;;;;19.50;19.50;;;;;19.62;53.50;100998.03;4941521;28;45443;-46
2022/06/04 05:10:03;;;;;;;;;23.50;21.50;;;;;19.63;52.95;100995.31;4941615;28;45335;-45
2022/06/04 05:12:28;;;;;;;;;8.00;7.75;;;;;19.66;52.88;101004.97;4941733;28;45290;-46
2022/06/04 05:14:54;;;;;;;;;21.50;21.50;;;;;19.67;53.44;100993.34;4941268;28;46005;-44
2022/06/04 05:17:19;;;;;;;;;21.50;20.75;;;;;19.70;52.99;100990.53;4941736;28;45350;-46
2022/06/04 05:19:44;;;;;;;;;22.75;19.25;;;;;19.69;53.44;100972.81;4941777;28;45334;-45
2022/06/04 05:22:10;;;;;;;;;22.75;20.25;;;;;19.71;53.04;100968.28;4941742;28;45446;-47
2022/06/04 05:24:36;;;;;;;;;23.00;21.25;;;;;19.72;53.03;100959.34;4940176;28;47177;-49
2022/06/04 05:27:04;;;;;;;;;19.25;19.25;;;;;19.73;53.60;100953.06;4941690;28;45293;-49
2022/06/04 05:29:31;;;;;;;;;20.25;19.75;;;;;19.74;53.25;100951.28;4941311;28;45256;-45
2022/06/04 05:31:57;;;;;;;;;24.50;20.25;;;;;19.73;53.07;100941.56;4941167;28;45493;-44
2022/06/04 05:34:23;;;;;;;;;22.25;21.75;;;;;19.73;53.24;100938.88;4941090;28;47078;-45
2022/06/04 05:36:49;;;;;;;;;19.00;19.00;;;;;19.76;53.01;100941.38;4941438;28;45273;-48
2022/06/04 05:39:15;;;;;;;;;24.25;22.75;;;;;19.75;53.41;100937.00;4940063;28;45197;-45
2022/06/04 05:41:41;;;;;;;;;21.25;20.75;;;;;19.77;53.41;100946.66;4941243;28;45883;-46
2022/06/04 05:44:07;;;;;;;;;22.75;21.25;;;;;19.77;53.11;100949.31;4941285;28;45180;-49
2022/06/04 05:46:33;;;;;;;;;23.50;20.75;;;;;19.78;53.02;100952.84;4941023;28;45378;-47
2022/06/04 05:49:01;;;;;;;;;22.00;20.50;;;;;19.79;53.58;100950.09;4941291;28;45224;-48
2022/06/04 05:51:29;;;;;;;;;21.25;20.00;;;;;19.82;53.19;100951.75;4941057;28;45343;-43
2022/06/04 05:53:55;;;;;;;;;20.25;20.25;;;;;19.83;53.43;100937.50;4941025;28;45481;-46
2022/06/04 05:56:25;;;;;;;;;20.50;18.25;;;;;19.84;53.28;100936.56;4941008;28;45238;-44
2022/06/04 05:58:52;;;;;;;;;20.00;17.75;;;;;19.86;53.66;100953.38;4941406;28;45322;-46
2022/06/04 06:01:20;;;;;;;;;16.00;15.75;;;;;19.88;53.84;100954.13;4940822;28;45477;-45
2022/06/04 06:03:47;;;;;;;;;22.25;19.50;;;;;19.90;53.78;100967.38;4940884;28;46359;-45
2022/06/04 06:06:21;;;;;;;;;17.50;17.50;;;;;19.92;53.79;100971.75;4941170;28;45297;-47
2022/06/04 06:08:46;;;;;;;;;18.25;17.25;;;;;19.96;53.48;100980.41;4941068;28;45160;-46
2022/06/04 06:11:13;;;;;;;;;16.00;15.75;;;;;19.99;53.95;100977.63;4941039;28;45287;-47
2022/06/04 06:13:40;;;;;;;;;22.25;19.50;;;;;20.03;53.91;100978.34;4940829;28;46864;-48
2022/06/04 06:16:10;;;;;;;;;21.75;20.75;;;;;20.04;53.82;100994.25;4940623;28;45486;-48
2022/06/04 06:18:36;;;;;;;;;20.75;17.00;;;;;20.10;53.94;101020.63;4942667;28;45248;-48
2022/06/04 06:21:06;;;;;;;;;19.25;17.50;;;;;20.13;53.34;101044.47;4944252;28;45249;-45
2022/06/04 06:23:32;;;;;;;;;19.25;18.50;;;;;20.14;53.59;101046.19;4944449;28;46186;-45
2022/06/04 06:25:58;;;;;;;;;21.75;17.50;;;;;20.17;54.14;101033.66;4943961;28;45330;-49
2022/06/04 06:28:24;;;;;;;;;16.25;16.25;;;;;20.18;53.58;101070.06;4944376;28;45331;-46
2022/06/04 06:30:51;;;;;;;;;18.75;17.25;;;;;20.19;54.01;101069.09;4943759;28;45402;-47
2022/06/04 06:33:16;;;;;;;;;18.75;18.00;;;;;20.17;53.88;101044.31;4944089;28;47152;-46
2022/06/04 06:35:42;;;;;;;;;17.50;17.50;;;;;20.17;54.26;101071.84;4944081;28;45246;-48
2022/06/04 06:38:07;;;;;;;;;21.50;18.50;;;;;20.17;54.21;101095.88;4944341;28;45218;-48
2022/06/04 06:40:35;;;;;;;;;19.00;18.00;;;;;20.18;54.31;101080.75;4943624;28;45574;-46
2022/06/04 06:43:00;;;;;;;;;20.25;18.75;;;;;20.18;54.35;101070.06;4944028;28;46234;-47
2022/06/04 06:45:25;;;;;;;;;20.25;20.25;;;;;20.19;53.81;101078.00;4943543;28;47500;-48
2022/06/04 06:47:51;;;;;;;;;21.25;20.25;;;;;20.20;54.40;101076.19;4944087;28;45336;-44
2022/06/04 06:50:16;;;;;;;;;21.00;19.75;;;;;20.21;54.17;101069.91;4942401;28;45506;-45
2022/06/04 06:52:42;;;;;;;;;19.25;19.25;;;;;20.22;54.23;101069.81;4943789;28;47106;-44
2022/06/04 06:55:07;;;;;;;;;21.75;20.75;;;;;20.15;53.96;101065.75;4943840;28;45257;-48
2022/06/04 06:57:33;;;;;;;;;21.25;20.50;;;;;20.24;54.05;101070.63;4943951;28;45267;-46
2022/06/04 06:59:58;;;;;;;;;22.50;22.00;;;;;20.30;54.17;101064.09;4943572;28;45295;-48
2022/06/04 07:02:23;;;;;;;;;21.75;20.75;;;;;20.34;54.24;101051.47;4943640;28;46284;-47
2022/06/04 07:04:49;;;;;;;;;23.75;21.25;;;;;20.39;53.65;101057.44;4942616;28;45296;-47
2022/06/04 07:07:14;;;;;;;;;24.00;22.75;;;;;20.43;54.27;101051.03;4943799;28;45529;-49
2022/06/04 07:09:41;;;;;;;;;23.25;22.00;;;;;20.49;53.84;101053.38;4943785;28;45314;-46
2022/06/04 07:12:08;;;;;;;;;23.00;21.50;;;;;20.51;53.92;101040.81;4943458;28;46194;-46
2022/06/04 07:14:34;;;;;;;;;22.50;22.50;;;;;20.59;54.14;101035.06;4941951;28;46675;-45
2022/06/04 07:17:00;;;;;;;;;24.00;23.50;;;;;20.63;53.76;101031.31;4943501;28;45301;-47
2022/06/04 07:19:27;;;;;;;;;22.50;20.75;;;;;20.68;53.68;101034.59;4943580;28;45379;-46
2022/06/04 07:21:54;;;;;;;;;24.50;22.75;;;;;20.74;54.28;101042.34;4943268;28;45419;-47
2022/06/04 07:24:20;;;;;;;;;18.50;17.00;;;;;20.72;54.24;101028.19;4943350;28;45291;-48
2022/06/04 07:26:45;;;;;;;;;19.75;19.75;;;;;20.85;53.58;101039.09;4943407;28;45226;-47
2022/06/04 07:29:12;;;;;;;;;19.00;18.00;;;;;20.90;54.20;101036.19;4942919;28;45426;-47
2022/06/04 07:31:38;;;;;;;;;19.75;19.75;;;;;20.94;53.55;101040.41;4942835;28;46367;-46
2022/06/04 07:34:05;;;;;;;;;18.50;18.25;;;;;21.00;53.87;101034.75;4943218;28;45362;-48
2022/06/04 07:36:33;;;;;;;;;20.00;18.50;;;;;21.07;53.55;101032.63;4943171;28;45263;-45
2022/06/04 07:38:59;;;;;;;;;23.25;20.50;;;;;21.13;53.64;101036.75;4943088;28;45337;-45
2022/06/04 07:41:27;;;;;;;;;20.50;18.00;;;;;21.19;53.69;101033.75;4942761;28;46164;-47
2022/06/04 07:43:53;;;;;;;;;18.25;16.75;;;;;21.28;53.91;101033.25;4943091;28;45261;-43
2022/06/04 07:46:20;;;;;;;;;17.50;16.50;;;;;21.35;53.91;101034.63;4942989;28;45200;-47
2022/06/04 07:48:46;;;;;;;;;17.00;17.00;;;;;21.41;53.62;101046.81;4942971;28;45371;-44
2022/06/04 07:51:12;;;;;;;;;16.75;16.00;;;;;21.45;53.31;101051.03;4942907;28;47000;-44
2022/06/04 07:53:38;;;;;;;;;15.50;15.50;;;;;21.48;53.65;101045.50;4942818;28;45330;-46
2022/06/04 07:56:11;;;;;;;;;19.50;18.00;;;;;21.54;53.15;101055.00;4943081;28;45366;-43
2022/06/04 07:58:37;;;;;;;;;19.00;18.00;;;;;21.56;53.60;101042.47;4942871;28;45334;-47
2022/06/04 08:01:05;;;;;;;;;14.25;12.25;;;;;21.59;53.65;101042.28;4942285;28;45969;-45
2022/06/04 08:03:33;;;;;;;;;11.00;11.00;;;;;21.62;53.04;101031.41;4941414;28;45416;-46
2022/06/04 08:05:59;;;;;;;;;16.25;15.25;;;;;21.66;52.70;101030.31;4942882;28;45245;-45
2022/06/04 08:08:24;;;;;;;;;11.25;10.25;;;;;21.69;52.54;101035.47;4942548;28;45165;-48
2022/06/04 08:10:50;;;;;;;;;16.00;16.00;;;;;21.71;52.82;101038.94;4942733;28;45374;-44
2022/06/04 08:13:26;;;;;;;;;18.00;16.00;;;;;21.77;53.07;101037.69;4942269;28;45354;-44
2022/06/04 08:16:00;;;;;;;;;15.50;15.00;;;;;21.81;52.83;101027.69;4941248;28;45300;-46
2022/06/04 08:18:26;;;;;;;;;12.50;12.50;;;;;21.84;52.27;101032.88;4942417;28;45367;-44
2022/06/04 08:20:53;;;;;;;;;14.00;11.25;;;;;21.85;52.58;101035.47;4942408;28;45458;-44
2022/06/04 08:23:19;;;;;;;;;12.50;11.50;;;;;21.92;52.86;101033.28;4942495;28;45319;-44
2022/06/04 08:25:50;;;;;;;;;9.50;8.25;;;;;21.95;52.50;101018.88;4942504;28;45391;-50
2022/06/04 08:28:16;;;;;;;;;14.00;11.50;;;;;22.00;52.17;101028.38;4942414;28;45292;-43
2022/06/04 08:30:43;;;;;;;;;7.25;7.25;;;;;22.03;51.81;101022.84;4941850;28;45426;-44
2022/06/04 08:33:09;;;;;;;;;8.50;8.50;;;;;22.07;52.11;101021.72;4940969;28;46013;-45
2022/06/04 08:35:34;;;;;;;;;9.50;9.50;;;;;22.11;51.76;101026.88;4942400;28;45363;-45
2022/06/04 08:38:00;;;;;;;;;8.25;7.00;;;;;22.07;51.69;101013.69;4942192;28;45393;-47
2022/06/04 08:40:36;;;;;;;;;10.25;8.75;;;;;22.20;51.63;101026.34;4940948;28;47213;-48
2022/06/04 08:43:16;;;;;;;;;12.50;11.00;;;;;22.25;51.57;101024.28;4942435;28;45521;-47
2022/06/04 08:45:41;;;;;;;;;11.00;11.00;;;;;22.29;51.02;101030.28;4941897;28;45333;-45
2022/06/04 08:48:20;;;;;;;;;10.25;10.25;;;;;22.33;51.34;101031.84;4942107;28;45308;-47
2022/06/04 08:50:47;;;;;;;;;10.75;10.00;;;;;22.34;51.73;101034.44;4941732;28;45298;-47
2022/06/04 08:53:20;;;;;;;;;13.00;11.25;;;;;22.39;51.16;101037.72;4942032;28;45259;-48
2022/06/04 08:59:13;;;;;;;;;12.00;12.00;;;;;22.50;51.67;101049.59;4941776;28;45371;-46
2022/06/04 09:01:44;;;;;;;;;10.50;10.50;;;;;22.57;50.95;101048.28;4941392;28;46419;-48
2022/06/04 09:04:35;;;;;;;;;9.75;9.75;;;;;22.60;51.17;101050.78;4941829;28;45273;-45
2022/06/04 09:07:23;;;;;;;;;13.75;13.00;;;;;22.67;51.03;101051.28;4940779;28;45418;-48
2022/06/04 09:10:27;;;;;;;;;10.75;9.00;;;;;22.72;51.27;101042.00;4940516;28;45407;-45
2022/06/04 09:13:02;;;;;;;;;10.25;10.25;;;;;22.81;50.83;101055.81;4901319;28;46322;-47
2022/06/04 09:15:45;;;;;;;;;14.25;13.50;;;;;22.86;50.95;101054.56;4926699;28;45324;-47
2022/06/04 09:18:18;;;;;;;;;12.50;12.25;;;;;22.93;50.71;101052.38;4941679;28;45343;-48
2022/06/04 09:20:47;;;;;;;;;14.00;12.00;;;;;22.98;50.90;101052.06;4941624;28;45538;-45
2022/06/04 09:23:22;;;;;;;;;14.25;13.25;;;;;23.08;50.82;101063.09;4941452;28;46190;-50
2022/06/04 09:26:13;;;;;;;;;13.00;12.00;;;;;23.15;50.61;101062.66;4941540;28;45334;-45
2022/06/04 09:28:39;;;;;;;;;12.50;9.25;;;;;23.22;50.22;101049.75;4937177;28;45289;-46
2022/06/04 09:31:13;;;;;;;;;12.25;12.25;;;;;23.27;50.29;101050.31;4941090;28;45481;-48
2022/06/04 09:34:01;;;;;;;;;12.75;12.00;;;;;23.33;50.50;101057.97;4941408;28;46489;-47
2022/06/04 09:36:31;;;;;;;;;10.75;10.00;;;;;23.43;50.52;101062.75;4941581;28;45383;-44
2022/06/04 09:39:02;;;;;;;;;7.00;5.00;;;;;23.51;50.20;101063.13;4941494;28;45236;-49
2022/06/04 09:41:31;;;;;;;;;10.75;9.00;;;;;23.58;50.20;101056.38;4941362;28;45435;-47
2022/06/04 09:44:11;;;;;;;;;13.00;11.50;;;;;23.68;50.52;101054.88;4940961;28;46610;-44
2022/06/04 09:46:43;;;;;;;;;11.00;10.75;;;;;23.79;50.13;101055.97;4941001;28;45371;-48
2022/06/04 09:49:20;;;;;;;;;11.25;10.75;;;;;23.88;49.99;101055.38;4939850;28;45244;-49
2022/06/04 09:51:46;;;;;;;;;11.50;10.50;;;;;23.99;49.84;101052.88;4941655;28;45566;-45
2022/06/04 09:54:23;;;;;;;;;11.00;10.50;;;;;24.11;49.58;101050.34;4943353;28;48488;-48
2022/06/04 09:56:57;;;;;;;;;8.50;7.50;;;;;24.22;49.38;101050.47;4944525;28;45374;-45
2022/06/04 09:59:32;;;;;;;;;10.25;10.25;;;;;24.36;49.61;101046.84;4944559;28;45333;-45
2022/06/04 10:01:59;;;;;;;;;10.00;10.00;;;;;24.49;49.31;101055.81;4944452;28;45306;-49
2022/06/04 10:04:41;;;;;;;;;12.00;12.00;;;;;24.64;49.09;101048.56;4944511;28;45327;-47
2022/06/04 10:07:09;;;;;;;;;9.50;9.50;;;;;24.79;49.60;101051.16;4944379;28;45708;-47
2022/06/04 10:09:56;;;;;;;;;15.25;12.75;;;;;24.95;49.27;101056.31;4944573;28;45299;-45
2022/06/04 10:13:42;;;;;;;;;14.00;13.25;;;;;25.10;49.41;101052.53;4944358;28;45531;-47
2022/06/04 10:15:25;;;;;;;;;13.00;11.25;;;;;25.25;48.78;101050.59;4943863;28;45406;-44
2022/06/04 10:18:01;;;;;;;;;13.00;13.00;;;;;25.41;49.06;101050.38;4942820;28;45369;-48
2022/06/04 10:20:26;;;;;;;;;13.25;12.25;;;;;25.53;49.21;101039.72;4944435;28;45205;-48
2022/06/04 10:22:52;;;;;;;;;15.00;14.00;;;;;25.69;48.25;101048.38;4944448;28;45205;-45
2022/06/04 10:25:32;;;;;;;;;15.25;11.25;;;;;25.85;48.87;101049.94;4944262;28;45270;-47
2022/06/04 10:28:18;;;;;;;;;11.25;10.00;;;;;26.07;48.63;101042.00;4943079;28;45353;-49
2022/06/04 10:31:10;;;;;;;;;13.25;11.25;;;;;26.30;48.17;101046.63;4936452;28;45336;-47
2022/06/04 10:33:53;;;;;;;;;8.75;8.75;;;;;26.54;48.15;101044.75;4940682;28;45659;-46
2022/06/04 10:36:31;;;;;;;;;12.50;10.75;;;;;26.81;48.48;101042.78;4942915;28;46441;-46
2022/06/04 10:39:09;;;;;;;;;11.75;11.00;;;;;27.13;48.53;101037.53;4943985;28;45323;-46
2022/06/04 10:41:56;;;;;;;;;10.75;10.75;;;;;27.50;48.23;101034.56;4942477;28;45292;-49
2022/06/04 10:44:30;;;;;;;;;7.50;7.50;;;;;27.90;48.31;101042.09;4942424;28;45286;-49
2022/06/04 10:47:19;;;;;;;;;6.50;6.25;;;;;28.36;48.36;101033.81;4943623;28;46415;-47
2022/06/04 10:49:47;;;;;;;;;7.00;7.00;;;;;28.81;48.13;101033.56;4943841;28;45217;-45
2022/06/04 10:52:24;;;;;;;;;13.00;12.00;;;;;29.28;47.57;101043.03;4943635;28;45485;-47
2022/06/04 10:55:06;;;;;;;;;13.00;11.00;;;;;29.71;47.53;101036.50;4943596;28;45497;-47
2022/06/04 10:57:38;;;;;;;;;9.75;9.75;;;;;30.09;46.92;101034.84;4942267;28;47681;-46
2022/06/04 11:00:20;;;;;;;;;7.00;7.00;;;;;30.48;47.02;101042.16;4943390;28;45299;-47
2022/06/04 11:02:53;;;;;;;;;4.50;4.50;;;;;30.89;46.12;101028.34;4943495;28;45321;-48
2022/06/04 11:05:41;;;;;;;;;6.50;6.50;;;;;31.30;46.78;101031.63;4942909;28;45534;-47
2022/06/04 11:08:37;;;;;;;;;8.50;7.25;;;;;31.80;46.47;101026.75;4942324;28;47697;-48
2022/06/04 11:11:10;;;;;;;;;8.25;7.25;;;;;32.27;46.04;101032.00;4942319;28;45190;-46
2022/06/04 11:13:44;;;;;;;;;3.25;3.25;;;;;32.72;45.25;101030.97;4943324;28;45156;-47
2022/06/04 11:16:17;;;;;;;;;3.75;3.75;;;;;33.16;44.84;101034.63;4943181;28;45275;-49
2022/06/04 11:19:04;;;;;;;;;2.00;2.00;;;;;33.58;44.48;101036.50;4943586;28;46662;-48
2022/06/04 11:21:51;;;;;;;;;4.25;4.25;;;;;33.98;43.55;101043.09;4943433;28;45308;-50
2022/06/04 11:24:27;;;;;;;;;3.00;3.00;;;;;34.36;43.45;101031.72;4943498;28;45426;-51
2022/06/04 11:27:00;;;;;;;;;2.75;2.25;;;;;34.76;42.57;101029.09;4943540;28;45348;-50
2022/06/04 11:29:25;;;;;;;;;3.00;3.00;;;;;35.11;42.63;101030.53;4941817;28;46137;-50
2022/06/04 11:32:06;;;;;;;;;5.00;3.75;;;;;35.49;42.19;101027.16;4943062;28;45400;-49
2022/06/04 11:35:02;;;;;;;;;1.75;1.75;;;;;35.91;41.79;101019.56;4942178;28;45360;-50
2022/06/04 11:38:00;;;;;;;;;4.00;2.50;;;;;36.20;41.32;101026.16;4943069;28;45332;-48
2022/06/04 11:40:35;;;;;;;;;2.00;2.00;;;;;36.56;40.97;101026.38;4942897;28;46202;-51
2022/06/04 11:43:17;;;;;;;;;2.75;2.75;;;;;36.88;40.37;101024.34;4943193;28;45439;-50